Time;durP1;ratioP1;P1;durP2;ratioP2;P2;SDS_P1;SDS_P2;PMS_P1;PMS_P2;Temp;Humidity;BMP_temperature;BMP_pressure;BME280_temperature;BME280_humidity;BME280_pressure;Samples;Min_cycle;Max_cycle;Signal;HPM_P1;HPM_P2
2021/11/06 00:02:10;;;;;;;6.00;4.50;;;4.30;99.90;;;;;;4747452;30;20048;-86
2021/11/06 00:04:42;;;;;;;6.85;5.82;;;4.20;99.90;;;;;;4749641;30;20071;-87
2021/11/06 00:07:12;;;;;;;4.68;4.35;;;4.20;99.90;;;;;;4748481;30;20048;-87
2021/11/06 00:09:41;;;;;;;5.05;4.65;;;4.20;99.90;;;;;;4750040;30;20040;-87
2021/11/06 00:12:10;;;;;;;4.57;4.20;;;4.20;99.90;;;;;;4733933;30;20063;-87
2021/11/06 00:14:40;;;;;;;4.90;4.35;;;4.20;99.90;;;;;;4740891;30;20057;-85
2021/11/06 00:17:11;;;;;;;5.15;4.10;;;4.20;99.90;;;;;;4731117;30;20416;-86
2021/11/06 00:19:40;;;;;;;4.30;3.90;;;4.20;99.90;;;;;;4731325;30;20049;-84
2021/11/06 00:22:09;;;;;;;4.68;4.05;;;4.20;99.90;;;;;;4730442;30;20063;-84
2021/11/06 00:24:39;;;;;;;4.38;3.70;;;4.20;99.90;;;;;;4732878;30;20061;-84
2021/11/06 00:27:10;;;;;;;7.32;5.32;;;4.20;99.90;;;;;;4732468;30;20072;-84
2021/11/06 00:29:38;;;;;;;6.75;5.50;;;4.20;99.90;;;;;;4754376;30;20051;-84
2021/11/06 00:32:06;;;;;;;5.72;5.05;;;4.30;99.90;;;;;;4765822;30;20060;-85
2021/11/06 00:34:34;;;;;;;5.30;4.80;;;4.30;99.90;;;;;;4765480;29;20439;-85
2021/11/06 00:37:02;;;;;;;7.30;6.30;;;4.30;99.90;;;;;;4751307;30;20060;-85
2021/11/06 00:39:30;;;;;;;6.45;5.95;;;4.30;99.90;;;;;;4735710;30;20060;-85
2021/11/06 00:42:00;;;;;;;9.93;5.30;;;4.20;99.90;;;;;;4750777;30;20495;-86
2021/11/06 00:44:28;;;;;;;5.10;4.47;;;4.20;99.90;;;;;;4764818;30;20063;-85
2021/11/06 00:46:55;;;;;;;7.90;5.25;;;4.20;99.90;;;;;;4749903;30;20063;-85
2021/11/06 00:49:23;;;;;;;6.57;4.80;;;4.20;99.90;;;;;;4750857;30;20040;-85
2021/11/06 00:51:52;;;;;;;6.60;6.03;;;4.10;99.90;;;;;;4751132;30;20063;-85
2021/11/06 00:54:19;;;;;;;6.60;5.10;;;4.20;99.90;;;;;;4750795;30;20051;-85
2021/11/06 00:56:47;;;;;;;5.88;5.25;;;4.20;99.90;;;;;;4751014;30;20086;-86
2021/11/06 00:59:15;;;;;;;6.13;5.63;;;4.20;99.90;;;;;;4750334;30;20068;-85
2021/11/06 01:01:43;;;;;;;5.43;5.00;;;4.30;99.90;;;;;;4749736;30;20048;-85
2021/11/06 01:04:11;;;;;;;6.00;5.50;;;4.20;99.90;;;;;;4749779;30;20075;-85
2021/11/06 01:06:39;;;;;;;6.32;5.30;;;4.20;99.90;;;;;;4736519;30;20063;-86
2021/11/06 01:09:06;;;;;;;6.20;5.10;;;4.30;99.90;;;;;;4749498;30;20056;-85
2021/11/06 01:11:35;;;;;;;9.43;3.70;;;4.30;99.90;;;;;;4750609;30;20060;-85
2021/11/06 01:14:03;;;;;;;5.55;4.70;;;4.30;99.90;;;;;;4750316;30;20052;-85
2021/11/06 01:16:31;;;;;;;5.43;4.63;;;4.30;99.90;;;;;;4750457;30;20060;-85
2021/11/06 01:18:59;;;;;;;5.13;4.72;;;4.20;99.90;;;;;;4750459;30;20063;-85
2021/11/06 01:21:28;;;;;;;6.32;4.70;;;4.20;99.90;;;;;;4750132;30;20060;-86
2021/11/06 01:23:56;;;;;;;6.47;4.35;;;4.10;99.90;;;;;;4750048;30;20052;-79
2021/11/06 01:26:24;;;;;;;4.45;3.90;;;3.90;99.90;;;;;;4751422;30;20067;-83
2021/11/06 01:28:52;;;;;;;5.18;4.65;;;3.90;99.90;;;;;;4752411;30;20502;-83
2021/11/06 01:31:19;;;;;;;3.75;3.45;;;3.90;99.90;;;;;;4769058;30;20052;-84
2021/11/06 01:33:47;;;;;;;5.82;4.38;;;3.80;99.90;;;;;;4770055;30;20406;-84
2021/11/06 01:36:16;;;;;;;5.95;5.35;;;3.70;99.90;;;;;;4770512;30;20071;-84
2021/11/06 01:38:44;;;;;;;4.38;3.97;;;3.80;99.90;;;;;;4768525;29;20055;-86
2021/11/06 01:41:12;;;;;;;6.13;4.97;;;3.90;99.90;;;;;;4767652;30;20047;-86
2021/11/06 01:43:41;;;;;;;6.90;4.97;;;3.80;99.90;;;;;;4768343;30;20723;-86
2021/11/06 01:46:10;;;;;;;6.40;4.80;;;3.90;99.90;;;;;;4767480;30;20044;-86
2021/11/06 01:48:38;;;;;;;5.15;3.63;;;3.90;99.90;;;;;;4767948;30;20063;-86
2021/11/06 01:51:06;;;;;;;5.43;4.93;;;3.90;99.90;;;;;;4767795;30;20052;-86
2021/11/06 01:53:33;;;;;;;7.40;6.25;;;3.80;99.90;;;;;;4766470;29;20055;-84
2021/11/06 01:56:02;;;;;;;6.47;5.35;;;3.90;99.90;;;;;;4768219;30;20047;-86
2021/11/06 01:58:31;;;;;;;5.35;4.22;;;3.90;99.90;;;;;;4751261;30;20059;-86
2021/11/06 02:01:00;;;;;;;5.15;4.65;;;4.10;99.90;;;;;;4751201;29;20059;-85
2021/11/06 02:03:28;;;;;;;4.80;4.22;;;3.90;99.90;;;;;;4769132;30;20058;-83
2021/11/06 02:05:56;;;;;;;5.35;4.82;;;4.00;99.90;;;;;;4769478;30;20498;-83
2021/11/06 02:08:23;;;;;;;5.35;4.25;;;3.90;99.90;;;;;;4768224;30;20055;-86
2021/11/06 02:10:51;;;;;;;3.97;3.55;;;3.60;99.90;;;;;;4767535;29;20073;-85
2021/11/06 02:13:19;;;;;;;5.72;4.68;;;3.50;99.90;;;;;;4765972;30;20071;-85
2021/11/06 02:15:47;;;;;;;5.55;5.03;;;3.50;99.90;;;;;;4717100;30;20060;-85
2021/11/06 02:18:15;;;;;;;4.88;4.47;;;3.50;99.90;;;;;;4731895;30;20057;-85
2021/11/06 02:20:48;;;;;;;5.95;4.72;;;3.40;99.90;;;;;;4732366;30;20060;-85
2021/11/06 02:23:16;;;;;;;10.60;5.03;;;3.40;99.90;;;;;;4732199;30;20048;-85
2021/11/06 02:25:44;;;;;;;5.57;5.07;;;3.40;99.90;;;;;;4730602;30;20052;-85
2021/11/06 02:28:32;;;;;;;4.15;3.70;;;3.40;99.90;;;;;;4732410;30;20063;-85
2021/11/06 02:31:00;;;;;;;8.52;4.63;;;3.40;99.90;;;;;;4760574;30;20056;-85
2021/11/06 02:33:28;;;;;;;5.97;5.47;;;3.30;99.90;;;;;;4765700;29;20063;-85
2021/11/06 02:35:58;;;;;;;5.93;5.35;;;3.30;99.90;;;;;;4769953;30;20064;-86
2021/11/06 02:38:27;;;;;;;7.35;5.53;;;3.30;99.90;;;;;;4770973;30;20062;-86
2021/11/06 02:40:54;;;;;;;6.90;4.40;;;3.40;99.90;;;;;;4769336;30;20056;-85
2021/11/06 02:43:22;;;;;;;10.57;4.55;;;3.20;99.90;;;;;;4770117;30;20060;-85
2021/11/06 02:45:50;;;;;;;7.32;5.30;;;3.20;99.90;;;;;;4770613;30;20051;-85
2021/11/06 02:48:18;;;;;;;5.97;4.82;;;3.10;99.90;;;;;;4754839;30;20061;-86
2021/11/06 02:50:45;;;;;;;6.47;5.13;;;3.00;99.90;;;;;;4735117;30;20045;-85
2021/11/06 02:53:13;;;;;;;5.80;4.10;;;2.90;99.90;;;;;;4733888;30;20053;-86
2021/11/06 02:55:41;;;;;;;6.53;5.93;;;2.90;99.90;;;;;;4735608;30;20052;-84
2021/11/06 02:58:09;;;;;;;5.97;5.25;;;2.80;99.90;;;;;;4732981;30;20060;-86
2021/11/06 03:00:37;;;;;;;6.63;5.90;;;2.80;99.90;;;;;;4735497;30;20056;-85
2021/11/06 03:03:05;;;;;;;6.13;5.10;;;2.70;99.90;;;;;;4733540;30;20056;-85
2021/11/06 03:05:33;;;;;;;5.93;5.03;;;2.80;99.90;;;;;;4733975;30;20664;-85
2021/11/06 03:08:01;;;;;;;9.00;5.95;;;2.90;99.90;;;;;;4735429;30;20070;-85
2021/11/06 03:10:29;;;;;;;5.85;5.20;;;2.60;99.90;;;;;;4734712;30;20055;-85
2021/11/06 03:12:57;;;;;;;6.28;5.28;;;2.70;99.90;;;;;;4734689;30;20063;-86
2021/11/06 03:15:25;;;;;;;6.70;5.22;;;2.60;99.90;;;;;;4748789;30;20071;-85
2021/11/06 03:17:53;;;;;;;5.10;4.70;;;2.40;99.90;;;;;;4734348;30;20047;-85
2021/11/06 03:20:20;;;;;;;6.53;5.90;;;2.40;99.90;;;;;;4733835;30;20060;-85
2021/11/06 03:22:51;;;;;;;53.60;8.85;;;2.20;99.90;;;;;;4734908;30;20049;-86
2021/11/06 03:25:18;;;;;;;6.88;5.07;;;2.10;99.90;;;;;;4734767;30;20053;-85
2021/11/06 03:27:47;;;;;;;7.55;5.40;;;2.00;99.90;;;;;;4733647;30;20063;-86
2021/11/06 03:30:15;;;;;;;35.85;7.40;;;2.00;99.90;;;;;;4752538;30;20063;-85
2021/11/06 03:32:42;;;;;;;84.93;8.82;;;2.10;99.90;;;;;;4770107;30;20051;-85
2021/11/06 03:35:11;;;;;;;45.95;11.25;;;2.00;99.90;;;;;;4769899;30;20047;-85
2021/11/06 03:37:39;;;;;;;33.53;9.52;;;1.90;99.90;;;;;;4769817;30;20043;-86
2021/11/06 03:40:08;;;;;;;58.78;8.88;;;1.80;99.90;;;;;;4770360;30;20062;-85
2021/11/06 03:42:36;;;;;;;48.33;9.18;;;1.80;99.90;;;;;;4769470;29;20063;-85
2021/11/06 03:45:05;;;;;;;78.70;10.00;;;1.70;99.90;;;;;;4769795;30;20058;-85
2021/11/06 03:47:34;;;;;;;131.68;14.02;;;1.70;99.90;;;;;;4769112;30;20636;-86
2021/11/06 03:50:08;;;;;;;251.43;21.88;;;1.80;99.90;;;;;;4769501;30;20056;-86
2021/11/06 03:52:37;;;;;;;37.35;6.68;;;1.80;99.90;;;;;;4770305;30;20483;-86
2021/11/06 03:55:07;;;;;;;27.67;7.28;;;1.70;99.90;;;;;;4752915;30;20059;-86
2021/11/06 03:57:35;;;;;;;15.23;5.65;;;1.60;99.90;;;;;;4769368;30;20525;-85
2021/11/06 04:00:09;;;;;;;107.50;7.65;;;1.50;99.90;;;;;;4769809;30;20059;-85
2021/11/06 04:02:36;;;;;;;5.53;5.00;;;1.50;99.90;;;;;;4768914;29;20055;-85
2021/11/06 04:05:07;;;;;;;25.40;7.50;;;1.40;99.90;;;;;;4769449;30;20062;-84
2021/11/06 04:07:35;;;;;;;4.50;4.05;;;1.50;99.90;;;;;;4783558;29;20059;-85
2021/11/06 04:10:04;;;;;;;13.15;6.50;;;1.60;99.90;;;;;;4767996;30;20051;-85
2021/11/06 04:12:32;;;;;;;8.23;6.05;;;1.50;99.90;;;;;;4768444;30;20059;-86
2021/11/06 04:14:59;;;;;;;7.45;4.35;;;1.70;99.90;;;;;;4744806;30;20059;-85
2021/11/06 04:17:27;;;;;;;78.22;7.88;;;1.30;99.90;;;;;;4732018;30;20045;-85
2021/11/06 04:19:55;;;;;;;163.82;10.93;;;1.10;99.90;;;;;;4718405;30;20456;-85
2021/11/06 04:22:23;;;;;;;66.68;8.40;;;0.90;99.90;;;;;;4734152;30;20511;-85
2021/11/06 04:24:51;;;;;;;36.50;6.18;;;0.80;99.90;;;;;;4734300;30;20072;-85
2021/11/06 04:27:18;;;;;;;5.75;4.63;;;0.80;99.90;;;;;;4732159;30;20053;-85
2021/11/06 04:29:46;;;;;;;35.95;5.53;;;0.90;99.90;;;;;;4744179;30;20048;-85
2021/11/06 04:32:14;;;;;;;4.95;4.53;;;1.00;99.90;;;;;;4768809;30;20055;-85
2021/11/06 04:34:42;;;;;;;6.03;5.38;;;1.00;99.90;;;;;;4768868;29;20059;-85
2021/11/06 04:37:10;;;;;;;5.30;4.78;;;1.00;99.90;;;;;;4768973;30;20436;-85
2021/11/06 04:39:37;;;;;;;47.20;7.97;;;1.00;99.90;;;;;;4768901;30;20056;-85
2021/11/06 04:42:05;;;;;;;6.80;4.47;;;1.10;99.90;;;;;;4768471;29;20787;-85
2021/11/06 04:44:33;;;;;;;54.33;5.95;;;1.10;99.90;;;;;;4769249;30;20063;-85
2021/11/06 04:47:01;;;;;;;33.88;7.22;;;1.20;99.90;;;;;;4768395;30;20051;-85
2021/11/06 04:49:29;;;;;;;16.67;6.88;;;1.20;99.90;;;;;;4752278;30;20533;-85
2021/11/06 04:51:57;;;;;;;55.22;7.53;;;1.20;99.90;;;;;;4751683;30;20078;-85
2021/11/06 04:54:25;;;;;;;36.38;6.20;;;1.20;99.90;;;;;;4750942;30;20048;-85
2021/11/06 04:56:59;;;;;;;70.75;7.22;;;1.20;99.90;;;;;;4764362;30;20242;-85
2021/11/06 04:59:27;;;;;;;49.38;8.55;;;1.10;99.90;;;;;;4749635;30;20059;-85
2021/11/06 05:01:56;;;;;;;122.18;9.25;;;1.00;99.90;;;;;;4750133;30;20418;-85
2021/11/06 05:04:26;;;;;;;73.80;7.85;;;1.00;99.90;;;;;;4751375;30;20066;-85
2021/11/06 05:06:54;;;;;;;21.10;5.38;;;1.00;99.90;;;;;;4750724;30;20052;-85
2021/11/06 05:09:22;;;;;;;21.65;5.90;;;0.80;99.90;;;;;;4750464;30;20059;-86
2021/11/06 05:11:50;;;;;;;5.20;4.72;;;0.80;99.90;;;;;;4750434;30;20066;-85
2021/11/06 05:14:18;;;;;;;7.72;4.50;;;0.60;99.90;;;;;;4749226;30;20083;-85
2021/11/06 05:16:47;;;;;;;12.60;5.55;;;0.60;99.90;;;;;;4750473;30;20060;-86
2021/11/06 05:19:15;;;;;;;4.25;3.85;;;0.60;99.90;;;;;;4750540;30;20056;-85
2021/11/06 05:21:44;;;;;;;68.80;7.97;;;0.40;99.90;;;;;;4750359;30;20051;-85
2021/11/06 05:24:12;;;;;;;5.18;4.70;;;0.40;99.90;;;;;;4750957;30;20056;-86
2021/11/06 05:26:40;;;;;;;5.15;4.65;;;0.40;99.90;;;;;;4749023;30;20056;-86
2021/11/06 05:29:10;;;;;;;7.32;5.32;;;0.40;99.90;;;;;;4750952;30;20048;-86
2021/11/06 05:31:39;;;;;;;4.90;4.50;;;0.40;99.90;;;;;;4768028;30;20060;-86
2021/11/06 05:34:07;;;;;;;6.00;5.45;;;0.30;99.90;;;;;;4737503;30;20055;-86
2021/11/06 05:36:35;;;;;;;5.90;4.68;;;0.30;99.90;;;;;;4768554;30;20144;-85
2021/11/06 05:39:04;;;;;;;5.57;5.18;;;0.30;99.90;;;;;;4768061;30;20059;-85
2021/11/06 05:41:32;;;;;;;4.95;4.55;;;0.30;99.90;;;;;;4767237;30;20067;-84
2021/11/06 05:44:00;;;;;;;4.45;4.05;;;0.20;99.90;;;;;;4768360;30;20411;-85
2021/11/06 05:46:28;;;;;;;4.82;4.43;;;0.20;99.90;;;;;;4767409;30;20048;-85
2021/11/06 05:48:56;;;;;;;6.38;4.32;;;0.10;99.90;;;;;;4767675;30;20071;-84
2021/11/06 05:51:38;;;;;;;5.90;5.30;;;0.10;99.90;;;;;;4768452;30;20054;-84
2021/11/06 05:54:06;;;;;;;6.22;5.45;;;0.00;99.90;;;;;;4767926;29;20055;-85
2021/11/06 05:56:34;;;;;;;5.05;4.45;;;0.00;99.90;;;;;;4768096;30;20058;-85
2021/11/06 05:59:03;;;;;;;5.00;4.55;;;0.10;99.90;;;;;;4767751;30;20051;-84
2021/11/06 06:01:30;;;;;;;5.80;4.60;;;0.10;99.90;;;;;;4766948;30;20064;-84
2021/11/06 06:03:58;;;;;;;4.25;3.92;;;0.00;99.90;;;;;;4768291;30;20070;-85
2021/11/06 06:06:26;;;;;;;5.78;5.28;;;0.10;99.90;;;;;;4767782;30;20055;-85
2021/11/06 06:08:53;;;;;;;5.10;4.63;;;0.30;99.90;;;;;;4768092;30;20056;-84
2021/11/06 06:11:21;;;;;;;5.22;4.82;;;0.20;99.90;;;;;;4766308;30;20082;-85
2021/11/06 06:13:49;;;;;;;5.05;4.63;;;0.20;99.90;;;;;;4763812;29;20052;-85
2021/11/06 06:16:17;;;;;;;4.97;4.50;;;0.10;99.90;;;;;;4749763;30;20059;-85
2021/11/06 06:18:45;;;;;;;5.10;4.30;;;0.00;99.90;;;;;;4749792;30;20056;-85
2021/11/06 06:21:14;;;;;;;7.63;6.25;;;-0.10;99.90;;;;;;4749557;30;20056;-85
2021/11/06 06:23:42;;;;;;;6.10;5.60;;;0.00;99.90;;;;;;4750236;30;20063;-85
2021/11/06 06:26:10;;;;;;;5.68;5.00;;;0.00;99.90;;;;;;4748363;30;20061;-85
2021/11/06 06:28:38;;;;;;;6.28;5.22;;;0.00;99.90;;;;;;4748218;30;20078;-84
2021/11/06 06:31:06;;;;;;;5.38;3.78;;;0.10;99.90;;;;;;4778218;29;20047;-86
2021/11/06 06:33:34;;;;;;;8.95;5.82;;;0.20;99.90;;;;;;4765618;29;20047;-85
2021/11/06 06:36:02;;;;;;;80.57;8.52;;;0.20;99.90;;;;;;4766667;30;20056;-85
2021/11/06 06:38:30;;;;;;;7.43;4.80;;;0.20;99.90;;;;;;4767449;30;20506;-86
2021/11/06 06:40:57;;;;;;;6.43;5.82;;;0.20;99.90;;;;;;4766752;29;20063;-85
2021/11/06 06:43:25;;;;;;;22.45;4.82;;;0.10;99.90;;;;;;4781237;29;20055;-85
2021/11/06 06:45:54;;;;;;;16.05;5.10;;;0.10;99.90;;;;;;4767139;30;20043;-85
2021/11/06 06:48:22;;;;;;;6.28;5.55;;;0.10;99.90;;;;;;4754748;30;20415;-85
2021/11/06 06:50:50;;;;;;;5.45;4.53;;;0.20;99.90;;;;;;4731770;30;20700;-85
2021/11/06 06:53:20;;;;;;;5.95;5.35;;;0.20;99.90;;;;;;4730481;30;20404;-85
2021/11/06 06:55:48;;;;;;;85.50;9.88;;;0.40;99.90;;;;;;4716803;30;20053;-85
2021/11/06 06:58:16;;;;;;;12.57;5.32;;;0.40;99.90;;;;;;4731825;30;20052;-86
2021/11/06 07:00:45;;;;;;;5.50;5.00;;;0.30;99.90;;;;;;4701885;30;20052;-86
2021/11/06 07:03:13;;;;;;;5.72;5.15;;;0.30;99.90;;;;;;4731530;30;20049;-85
2021/11/06 07:05:41;;;;;;;4.88;4.47;;;0.50;99.90;;;;;;4732078;30;20041;-86
2021/11/06 07:08:08;;;;;;;5.10;4.55;;;0.50;99.90;;;;;;4732324;30;20049;-86
2021/11/06 07:10:36;;;;;;;6.72;5.20;;;0.70;99.90;;;;;;4731969;30;20049;-86
2021/11/06 07:13:05;;;;;;;6.20;5.60;;;0.80;99.90;;;;;;4744789;30;20048;-86
2021/11/06 07:15:33;;;;;;;5.22;4.82;;;0.90;99.90;;;;;;4732395;30;20056;-86
2021/11/06 07:18:02;;;;;;;6.32;4.20;;;1.00;99.90;;;;;;4731679;30;20053;-86
2021/11/06 07:20:30;;;;;;;5.97;4.03;;;1.00;99.90;;;;;;4730818;30;20063;-86
2021/11/06 07:22:57;;;;;;;5.28;4.88;;;1.20;99.90;;;;;;4753828;30;20067;-85
2021/11/06 07:25:25;;;;;;;5.03;4.55;;;1.30;99.90;;;;;;4749495;30;20384;-85
2021/11/06 07:27:53;;;;;;;7.15;5.55;;;1.40;99.90;;;;;;4752128;30;20063;-86
2021/11/06 07:30:21;;;;;;;6.57;5.28;;;1.50;99.90;;;;;;4751484;30;20056;-86
2021/11/06 07:32:49;;;;;;;5.30;4.90;;;1.50;99.90;;;;;;4745648;30;20063;-85
2021/11/06 07:35:17;;;;;;;5.13;4.72;;;1.60;99.90;;;;;;4741918;30;20052;-85
2021/11/06 07:37:47;;;;;;;4.13;3.70;;;1.60;99.90;;;;;;4749416;30;20055;-86
2021/11/06 07:40:15;;;;;;;6.53;4.68;;;1.70;99.90;;;;;;4752638;30;20056;-86
2021/11/06 07:42:46;;;;;;;4.32;3.97;;;1.90;99.90;;;;;;4749237;30;20139;-86
2021/11/06 07:45:15;;;;;;;5.57;5.18;;;1.90;99.90;;;;;;4742976;30;20082;-87
2021/11/06 07:47:43;;;;;;;5.85;5.43;;;2.00;99.90;;;;;;4742579;30;20506;-86
2021/11/06 07:50:13;;;;;;;6.35;4.65;;;2.10;99.90;;;;;;4750315;30;20499;-86
2021/11/06 07:52:41;;;;;;;5.57;5.05;;;2.10;99.90;;;;;;4762229;30;20056;-87
2021/11/06 07:55:09;;;;;;;5.05;4.55;;;2.20;99.90;;;;;;4752499;30;20060;-87
2021/11/06 07:57:37;;;;;;;6.20;5.60;;;2.20;99.90;;;;;;4752108;30;20406;-86
2021/11/06 08:00:10;;;;;;;6.18;5.43;;;2.40;99.90;;;;;;4735046;30;20064;-86
2021/11/06 08:02:39;;;;;;;5.15;4.50;;;2.50;99.90;;;;;;4708316;30;20052;-79
2021/11/06 08:05:08;;;;;;;5.68;5.20;;;2.50;99.90;;;;;;4724866;30;20075;-88
2021/11/06 08:07:36;;;;;;;7.25;4.20;;;2.60;99.90;;;;;;4748303;30;20147;-89
2021/11/06 08:10:05;;;;;;;5.47;4.45;;;2.70;99.90;;;;;;4752145;30;20063;-87
2021/11/06 08:12:37;;;;;;;4.70;4.25;;;2.80;99.90;;;;;;4748051;30;20063;-87
2021/11/06 08:15:06;;;;;;;5.22;4.78;;;2.90;99.90;;;;;;4738999;30;20418;-87
2021/11/06 08:17:35;;;;;;;4.53;4.13;;;3.00;99.90;;;;;;4733806;30;20052;-87
2021/11/06 08:20:05;;;;;;;4.88;4.38;;;3.10;99.90;;;;;;4747588;30;20052;-87
2021/11/06 08:22:33;;;;;;;5.53;5.03;;;3.20;99.90;;;;;;4734059;30;20053;-86
2021/11/06 08:25:02;;;;;;;8.02;4.72;;;3.20;99.90;;;;;;4732570;30;20068;-87
2021/11/06 08:27:31;;;;;;;4.38;3.53;;;3.40;99.90;;;;;;4733960;30;20049;-86
2021/11/06 08:29:58;;;;;;;5.75;4.97;;;3.30;99.90;;;;;;4739002;30;20064;-87
2021/11/06 08:32:27;;;;;;;7.22;5.15;;;3.50;99.90;;;;;;4740425;30;20108;-87
2021/11/06 08:34:55;;;;;;;5.07;4.53;;;3.70;99.90;;;;;;4733871;30;20060;-87
2021/11/06 08:37:23;;;;;;;7.97;5.10;;;3.70;99.90;;;;;;4734096;30;20654;-87
2021/11/06 08:39:51;;;;;;;4.75;4.35;;;3.80;99.90;;;;;;4734253;30;20469;-90
2021/11/06 08:42:18;;;;;;;5.43;4.93;;;3.80;99.90;;;;;;4749244;30;20467;-85
2021/11/06 08:44:47;;;;;;;6.40;4.72;;;4.00;99.90;;;;;;4752127;30;20059;-83
2021/11/06 08:47:20;;;;;;;5.53;4.38;;;4.30;99.90;;;;;;4751444;30;20044;-87
2021/11/06 08:49:49;;;;;;;5.45;4.60;;;4.30;99.90;;;;;;4750273;30;20063;-88
2021/11/06 08:52:20;;;;;;;5.57;4.25;;;4.40;99.90;;;;;;4751472;30;20476;-88
2021/11/06 08:54:49;;;;;;;6.38;5.75;;;4.50;99.90;;;;;;4749918;30;20068;-89
2021/11/06 08:57:20;;;;;;;7.38;6.72;;;4.60;99.90;;;;;;4744781;30;20052;-89
2021/11/06 08:59:50;;;;;;;5.32;4.13;;;4.60;99.90;;;;;;4751729;30;20403;-89
2021/11/06 09:02:17;;;;;;;4.00;3.63;;;4.60;99.90;;;;;;4750439;30;20051;-88
2021/11/06 09:04:47;;;;;;;5.80;4.57;;;4.70;99.90;;;;;;4751488;30;20052;-88
2021/11/06 09:07:15;;;;;;;6.10;5.10;;;4.80;99.90;;;;;;4750832;30;20407;-88
2021/11/06 09:09:45;;;;;;;4.35;3.95;;;5.00;99.90;;;;;;4736314;30;20063;-87
2021/11/06 09:12:13;;;;;;;4.78;4.13;;;5.10;99.90;;;;;;4750953;30;20060;-88
2021/11/06 09:14:41;;;;;;;11.18;4.85;;;5.50;99.90;;;;;;4750847;30;20667;-88
2021/11/06 09:17:09;;;;;;;6.45;5.38;;;6.30;99.90;;;;;;4750191;30;20056;-88
2021/11/06 09:19:37;;;;;;;8.02;5.45;;;6.70;99.90;;;;;;4750233;30;20419;-89
2021/11/06 09:22:06;;;;;;;7.75;5.15;;;7.60;99.90;;;;;;4750530;30;20064;-89
2021/11/06 09:24:33;;;;;;;5.80;5.32;;;7.90;99.90;;;;;;4751426;30;20052;-89
2021/11/06 09:27:02;;;;;;;6.78;4.82;;;7.40;99.90;;;;;;4732868;30;20075;-90
2021/11/06 09:29:29;;;;;;;6.80;5.47;;;7.10;99.90;;;;;;4731592;30;20052;-89
2021/11/06 09:31:58;;;;;;;8.45;5.22;;;6.80;99.90;;;;;;4751882;30;20056;-88
2021/11/06 09:34:28;;;;;;;7.18;6.50;;;6.70;99.90;;;;;;4767364;30;20063;-89
2021/11/06 09:36:56;;;;;;;9.98;4.82;;;6.60;99.90;;;;;;4768399;30;20436;-89
2021/11/06 09:39:24;;;;;;;9.68;6.05;;;6.50;99.90;;;;;;4768858;30;20055;-90
2021/11/06 09:41:53;;;;;;;6.80;6.10;;;6.50;99.90;;;;;;4751942;29;20047;-89
2021/11/06 09:44:45;;;;;;;8.02;5.57;;;6.50;99.90;;;;;;4766989;30;20060;-90
2021/11/06 09:47:13;;;;;;;8.80;6.40;;;6.50;99.90;;;;;;4766086;30;20055;-90
2021/11/06 09:49:43;;;;;;;6.68;5.78;;;6.60;99.90;;;;;;4766294;30;20048;-89
2021/11/06 09:52:12;;;;;;;9.30;5.25;;;6.60;99.90;;;;;;4769396;30;20502;-89
2021/11/06 09:54:41;;;;;;;7.57;6.15;;;6.70;99.90;;;;;;4768478;29;20051;-90
2021/11/06 09:57:09;;;;;;;6.10;5.15;;;6.70;99.90;;;;;;4768233;30;20059;-89
2021/11/06 09:59:37;;;;;;;7.97;5.88;;;6.80;99.90;;;;;;4768580;30;20060;-90
2021/11/06 10:02:05;;;;;;;6.40;5.55;;;6.70;99.90;;;;;;4751842;29;20513;-90
2021/11/06 10:04:34;;;;;;;6.10;5.50;;;6.80;99.90;;;;;;4769135;30;20090;-90
2021/11/06 10:07:25;;;;;;;6.10;5.50;;;7.00;99.90;;;;;;4767615;30;20048;-90
2021/11/06 10:09:59;;;;;;;6.50;5.45;;;7.00;99.90;;;;;;4738179;30;20052;-89
2021/11/06 10:12:43;;;;;;;5.45;4.95;;;7.10;99.90;;;;;;4767462;30;20074;-89
2021/11/06 10:15:11;;;;;;;7.50;5.50;;;7.30;99.90;;;;;;4738900;29;20052;-90
2021/11/06 10:17:39;;;;;;;6.65;6.07;;;7.50;99.90;;;;;;4749922;30;20052;-89
2021/11/06 10:20:20;;;;;;;7.05;6.28;;;7.60;99.90;;;;;;4735470;30;20064;-90
2021/11/06 10:22:49;;;;;;;6.70;5.22;;;7.60;99.90;;;;;;4750703;30;20056;-90
2021/11/06 10:25:21;;;;;;;8.98;5.47;;;7.50;99.90;;;;;;4748854;30;20518;-89
2021/11/06 10:27:55;;;;;;;5.10;4.70;;;7.70;99.90;;;;;;4750723;30;20064;-89
2021/11/06 10:30:27;;;;;;;7.90;6.20;;;7.80;99.90;;;;;;4759643;30;20063;-89
2021/11/06 10:33:16;;;;;;;6.85;5.35;;;8.00;99.90;;;;;;4752060;30;20055;-89
2021/11/06 10:35:47;;;;;;;5.47;4.90;;;8.10;99.90;;;;;;4765752;30;20048;-89
2021/11/06 10:38:25;;;;;;;5.32;4.82;;;8.10;99.90;;;;;;4767868;30;20539;-89
2021/11/06 10:41:04;;;;;;;5.97;5.07;;;8.10;99.90;;;;;;4768291;30;20071;-89
2021/11/06 10:43:34;;;;;;;6.30;5.43;;;8.10;99.90;;;;;;4750694;30;20067;-90
2021/11/06 10:46:04;;;;;;;6.03;4.90;;;8.20;99.90;;;;;;4754975;30;20463;-88
2021/11/06 10:48:35;;;;;;;5.35;4.82;;;8.00;99.90;;;;;;4748498;30;20073;-89
2021/11/06 10:51:09;;;;;;;4.57;3.67;;;8.00;99.90;;;;;;4716154;30;20056;-88
2021/11/06 10:53:46;;;;;;;4.70;4.32;;;8.20;99.90;;;;;;4732341;30;20045;-87
2021/11/06 10:56:13;;;;;;;5.32;4.88;;;8.20;99.90;;;;;;4732323;30;20064;-87
2021/11/06 10:58:43;;;;;;;4.63;4.13;;;8.20;99.90;;;;;;4735374;30;20043;-88
2021/11/06 11:01:20;;;;;;;4.35;3.92;;;8.30;99.90;;;;;;4735303;30;20052;-88
2021/11/06 11:03:49;;;;;;;5.57;4.88;;;8.20;99.90;;;;;;4734599;30;20084;-89
2021/11/06 11:06:28;;;;;;;4.80;4.30;;;8.20;99.90;;;;;;4735714;30;20049;-89
2021/11/06 11:08:57;;;;;;;7.25;5.47;;;8.10;99.90;;;;;;4720131;30;20526;-84
2021/11/06 11:11:31;;;;;;;6.50;5.32;;;8.30;99.90;;;;;;4735186;30;20053;-88
2021/11/06 11:14:02;;;;;;;5.10;4.43;;;8.40;99.90;;;;;;4704785;30;20053;-87
2021/11/06 11:16:31;;;;;;;;;;;8.50;99.90;;;;;;4735515;30;20060;-89
2021/11/06 11:19:05;;;;;;;5.13;4.18;;;8.60;99.90;;;;;;4735329;30;19931;-88
2021/11/06 11:21:42;;;;;;;6.45;5.55;;;8.80;99.90;;;;;;4735058;30;20048;-88
2021/11/06 11:24:16;;;;;;;6.28;5.63;;;8.90;99.90;;;;;;4735850;30;20056;-89
2021/11/06 11:26:54;;;;;;;5.78;4.95;;;8.80;99.90;;;;;;4734767;30;20067;-90
2021/11/06 11:29:32;;;;;;;7.28;6.30;;;8.80;99.90;;;;;;4742241;30;20071;-89
2021/11/06 11:32:02;;;;;;;8.10;6.47;;;8.70;99.90;;;;;;4769038;30;20499;-89
2021/11/06 11:34:29;;;;;;;10.80;7.75;;;8.40;99.90;;;;;;4769250;29;20052;-88
2021/11/06 11:36:58;;;;;;;9.38;8.05;;;8.40;99.90;;;;;;4770045;30;20844;-89
2021/11/06 11:39:26;;;;;;;9.65;8.05;;;8.80;99.90;;;;;;4754330;30;20044;-84
2021/11/06 11:42:38;;;;;;;8.07;5.00;;;8.90;99.90;;;;;;4738155;30;20047;-84
2021/11/06 11:45:43;;;;;;;6.63;5.28;;;9.10;99.90;;;;;;4752709;30;20506;-83
2021/11/06 11:48:13;;;;;;;9.85;7.32;;;9.20;99.90;;;;;;4769438;30;20056;-84
2021/11/06 11:50:43;;;;;;;5.65;4.78;;;9.30;99.90;;;;;;4768069;30;20043;-84
2021/11/06 11:53:25;;;;;;;6.38;5.80;;;9.50;99.90;;;;;;4769577;29;20059;-83
2021/11/06 11:55:55;;;;;;;6.13;5.45;;;9.70;99.90;;;;;;4770147;30;20564;-85
2021/11/06 11:58:41;;;;;;;7.10;5.90;;;9.50;99.90;;;;;;4769161;30;20063;-84
2021/11/06 12:01:18;;;;;;;7.38;5.20;;;9.40;99.90;;;;;;4769080;29;20062;-84
2021/11/06 12:03:47;;;;;;;7.97;5.95;;;9.40;99.90;;;;;;4769601;30;20078;-83
2021/11/06 12:06:27;;;;;;;7.60;5.85;;;9.50;99.90;;;;;;4769272;30;20778;-84
2021/11/06 12:09:11;;;;;;;8.15;6.63;;;9.50;99.90;;;;;;4768172;30;20063;-84
2021/11/06 12:11:43;;;;;;;6.43;5.28;;;9.60;99.90;;;;;;4753034;30;20056;-83
2021/11/06 12:14:28;;;;;;;8.02;6.88;;;9.50;99.90;;;;;;4756960;30;20068;-84
2021/11/06 12:17:07;;;;;;;7.75;6.95;;;9.50;99.90;;;;;;4733645;30;20064;-82
2021/11/06 12:19:46;;;;;;;6.70;5.68;;;9.50;99.90;;;;;;4748135;30;20436;-84
2021/11/06 12:22:30;;;;;;;11.02;6.25;;;9.70;99.90;;;;;;4747307;30;20507;-84
2021/11/06 12:25:21;;;;;;;8.27;6.38;;;9.70;99.90;;;;;;4733621;30;20077;-84
2021/11/06 12:27:55;;;;;;;5.63;5.13;;;9.60;99.90;;;;;;4747375;30;20061;-83
2021/11/06 12:30:23;;;;;;;5.80;5.25;;;9.70;99.90;;;;;;4749589;30;20498;-84
2021/11/06 12:32:51;;;;;;;5.88;4.75;;;9.80;99.90;;;;;;4778902;29;20067;-84
2021/11/06 12:35:23;;;;;;;6.97;5.40;;;9.70;99.90;;;;;;4751578;29;20056;-84
2021/11/06 12:37:53;;;;;;;6.43;5.18;;;9.70;99.90;;;;;;4751394;30;20052;-84
2021/11/06 12:40:37;;;;;;;8.50;6.07;;;9.70;99.90;;;;;;4752081;30;20502;-84
2021/11/06 12:43:10;;;;;;;4.82;4.32;;;9.50;99.90;;;;;;4751117;29;20059;-84
2021/11/06 12:45:41;;;;;;;6.32;5.20;;;9.60;99.90;;;;;;4764416;30;20052;-83
2021/11/06 12:48:31;;;;;;;6.55;5.18;;;9.80;99.90;;;;;;4742247;30;20060;-83
2021/11/06 12:51:11;;;;;;;5.60;5.00;;;9.90;99.90;;;;;;4732955;30;20056;-84
2021/11/06 12:53:44;;;;;;;6.78;5.22;;;10.10;99.90;;;;;;4733215;30;20071;-84
2021/11/06 12:56:20;;;;;;;9.40;6.78;;;9.90;99.90;;;;;;4733808;30;20048;-83
2021/11/06 12:59:00;;;;;;;6.85;5.97;;;9.80;99.90;;;;;;4733232;30;20044;-85
2021/11/06 13:01:31;;;;;;;8.32;6.82;;;10.00;99.90;;;;;;4732606;30;20381;-83
2021/11/06 13:04:02;;;;;;;5.80;5.20;;;9.90;99.90;;;;;;4733629;30;20064;-84
2021/11/06 13:06:37;;;;;;;7.13;5.60;;;9.50;99.90;;;;;;4732972;30;20658;-84
2021/11/06 13:09:19;;;;;;;6.93;6.15;;;9.30;99.90;;;;;;4731912;30;20623;-84
2021/11/06 13:12:08;;;;;;;10.88;7.25;;;9.50;99.90;;;;;;4740011;30;20569;-84